sensor_id;sensor_type;location;lat;lon;timestamp;P1;durP1;ratioP1;P2;durP2;ratioP2
57573;SDS011;63722;48.858;21.906;2023-01-09T00:00:44;2.63;;;2.53;;
57573;SDS011;63722;48.858;21.906;2023-01-09T00:03:10;2.38;;;2.28;;
57573;SDS011;63722;48.858;21.906;2023-01-09T00:05:35;2.40;;;2.30;;
57573;SDS011;63722;48.858;21.906;2023-01-09T00:08:01;2.40;;;2.30;;
57573;SDS011;63722;48.858;21.906;2023-01-09T00:10:26;2.30;;;2.20;;
57573;SDS011;63722;48.858;21.906;2023-01-09T00:12:52;2.75;;;2.65;;
57573;SDS011;63722;48.858;21.906;2023-01-09T00:15:17;2.80;;;2.70;;
57573;SDS011;63722;48.858;21.906;2023-01-09T00:17:43;2.50;;;2.40;;
57573;SDS011;63722;48.858;21.906;2023-01-09T00:20:08;2.35;;;2.15;;
57573;SDS011;63722;48.858;21.906;2023-01-09T00:22:35;2.60;;;2.50;;
57573;SDS011;63722;48.858;21.906;2023-01-09T00:25:01;2.45;;;2.35;;
57573;SDS011;63722;48.858;21.906;2023-01-09T00:27:33;2.67;;;2.58;;
57573;SDS011;63722;48.858;21.906;2023-01-09T00:29:59;2.70;;;2.60;;
57573;SDS011;63722;48.858;21.906;2023-01-09T00:32:25;3.17;;;2.78;;
57573;SDS011;63722;48.858;21.906;2023-01-09T00:34:52;2.20;;;2.10;;
57573;SDS011;63722;48.858;21.906;2023-01-09T00:37:18;2.78;;;2.67;;
57573;SDS011;63722;48.858;21.906;2023-01-09T00:39:43;2.60;;;2.50;;
57573;SDS011;63722;48.858;21.906;2023-01-09T00:42:13;2.53;;;2.42;;
57573;SDS011;63722;48.858;21.906;2023-01-09T00:44:46;2.75;;;2.65;;
57573;SDS011;63722;48.858;21.906;2023-01-09T00:47:26;2.45;;;2.35;;
57573;SDS011;63722;48.858;21.906;2023-01-09T00:50:04;2.78;;;2.67;;
57573;SDS011;63722;48.858;21.906;2023-01-09T00:52:32;2.88;;;2.78;;
57573;SDS011;63722;48.858;21.906;2023-01-09T00:55:01;2.70;;;2.60;;
57573;SDS011;63722;48.858;21.906;2023-01-09T00:57:28;2.35;;;2.25;;
57573;SDS011;63722;48.858;21.906;2023-01-09T00:59:54;2.70;;;2.60;;
57573;SDS011;63722;48.858;21.906;2023-01-09T01:02:21;2.65;;;2.45;;
57573;SDS011;63722;48.858;21.906;2023-01-09T01:04:46;2.42;;;2.33;;
57573;SDS011;63722;48.858;21.906;2023-01-09T01:07:30;2.75;;;2.65;;
57573;SDS011;63722;48.858;21.906;2023-01-09T01:12:34;2.22;;;2.13;;
57573;SDS011;63722;48.858;21.906;2023-01-09T01:15:01;2.92;;;2.83;;
57573;SDS011;63722;48.858;21.906;2023-01-09T01:17:27;2.67;;;2.58;;
57573;SDS011;63722;48.858;21.906;2023-01-09T01:19:52;2.75;;;2.65;;
57573;SDS011;63722;48.858;21.906;2023-01-09T01:22:18;2.70;;;2.60;;
57573;SDS011;63722;48.858;21.906;2023-01-09T01:24:43;2.80;;;2.70;;
57573;SDS011;63722;48.858;21.906;2023-01-09T01:27:08;2.72;;;2.63;;
57573;SDS011;63722;48.858;21.906;2023-01-09T01:29:34;2.50;;;2.40;;
57573;SDS011;63722;48.858;21.906;2023-01-09T01:31:59;2.67;;;2.58;;
57573;SDS011;63722;48.858;21.906;2023-01-09T01:34:25;2.58;;;2.47;;
57573;SDS011;63722;48.858;21.906;2023-01-09T01:36:52;2.80;;;2.70;;
57573;SDS011;63722;48.858;21.906;2023-01-09T01:39:18;2.47;;;2.38;;
57573;SDS011;63722;48.858;21.906;2023-01-09T01:41:43;2.95;;;2.72;;
57573;SDS011;63722;48.858;21.906;2023-01-09T01:47:12;2.80;;;2.60;;
57573;SDS011;63722;48.858;21.906;2023-01-09T01:49:38;2.20;;;2.10;;
57573;SDS011;63722;48.858;21.906;2023-01-09T01:52:04;2.65;;;2.55;;
57573;SDS011;63722;48.858;21.906;2023-01-09T01:54:29;2.45;;;2.35;;
57573;SDS011;63722;48.858;21.906;2023-01-09T01:56:57;2.60;;;2.50;;
57573;SDS011;63722;48.858;21.906;2023-01-09T01:59:32;2.55;;;2.45;;
57573;SDS011;63722;48.858;21.906;2023-01-09T02:02:04;2.67;;;2.58;;
57573;SDS011;63722;48.858;21.906;2023-01-09T02:04:32;2.50;;;2.40;;
57573;SDS011;63722;48.858;21.906;2023-01-09T02:07:01;2.97;;;2.80;;
57573;SDS011;63722;48.858;21.906;2023-01-09T02:09:29;2.60;;;2.50;;
57573;SDS011;63722;48.858;21.906;2023-01-09T02:11:56;2.60;;;2.50;;
57573;SDS011;63722;48.858;21.906;2023-01-09T02:14:23;2.40;;;2.30;;
57573;SDS011;63722;48.858;21.906;2023-01-09T02:22:40;2.70;;;2.50;;
57573;SDS011;63722;48.858;21.906;2023-01-09T02:35:59;2.67;;;2.58;;
57573;SDS011;63722;48.858;21.906;2023-01-09T02:41:22;2.58;;;2.47;;
57573;SDS011;63722;48.858;21.906;2023-01-09T02:44:14;2.90;;;2.80;;
57573;SDS011;63722;48.858;21.906;2023-01-09T02:46:40;2.78;;;2.67;;
57573;SDS011;63722;48.858;21.906;2023-01-09T02:49:06;2.60;;;2.50;;
57573;SDS011;63722;48.858;21.906;2023-01-09T03:04:41;2.92;;;2.72;;
57573;SDS011;63722;48.858;21.906;2023-01-09T03:09:59;2.67;;;2.58;;
57573;SDS011;63722;48.858;21.906;2023-01-09T03:12:30;2.70;;;2.60;;
57573;SDS011;63722;48.858;21.906;2023-01-09T03:14:57;2.30;;;2.20;;
57573;SDS011;63722;48.858;21.906;2023-01-09T03:17:29;2.45;;;2.35;;
57573;SDS011;63722;48.858;21.906;2023-01-09T03:20:02;2.25;;;2.15;;
57573;SDS011;63722;48.858;21.906;2023-01-09T03:22:30;2.72;;;2.63;;
57573;SDS011;63722;48.858;21.906;2023-01-09T03:24:56;2.60;;;2.47;;
57573;SDS011;63722;48.858;21.906;2023-01-09T03:27:21;2.60;;;2.50;;
57573;SDS011;63722;48.858;21.906;2023-01-09T03:29:47;2.58;;;2.47;;
57573;SDS011;63722;48.858;21.906;2023-01-09T03:32:12;2.72;;;2.55;;
57573;SDS011;63722;48.858;21.906;2023-01-09T03:34:37;2.50;;;2.40;;
57573;SDS011;63722;48.858;21.906;2023-01-09T03:37:03;2.55;;;2.45;;
57573;SDS011;63722;48.858;21.906;2023-01-09T03:39:29;2.60;;;2.50;;
57573;SDS011;63722;48.858;21.906;2023-01-09T03:41:55;2.92;;;2.72;;
57573;SDS011;63722;48.858;21.906;2023-01-09T03:44:21;2.90;;;2.70;;
57573;SDS011;63722;48.858;21.906;2023-01-09T03:46:46;2.42;;;2.33;;
57573;SDS011;63722;48.858;21.906;2023-01-09T03:49:14;2.38;;;2.28;;
57573;SDS011;63722;48.858;21.906;2023-01-09T03:51:39;2.60;;;2.50;;
57573;SDS011;63722;48.858;21.906;2023-01-09T03:54:05;2.60;;;2.50;;
57573;SDS011;63722;48.858;21.906;2023-01-09T03:56:30;2.90;;;2.80;;
57573;SDS011;63722;48.858;21.906;2023-01-09T03:58:55;2.75;;;2.65;;
57573;SDS011;63722;48.858;21.906;2023-01-09T04:01:21;2.40;;;2.30;;
57573;SDS011;63722;48.858;21.906;2023-01-09T04:03:46;2.55;;;2.45;;
57573;SDS011;63722;48.858;21.906;2023-01-09T04:06:11;2.50;;;2.30;;
57573;SDS011;63722;48.858;21.906;2023-01-09T04:08:37;2.80;;;2.70;;
57573;SDS011;63722;48.858;21.906;2023-01-09T04:11:02;2.75;;;2.65;;
57573;SDS011;63722;48.858;21.906;2023-01-09T04:13:28;2.70;;;2.60;;
57573;SDS011;63722;48.858;21.906;2023-01-09T04:15:53;3.00;;;2.80;;
57573;SDS011;63722;48.858;21.906;2023-01-09T04:18:19;2.58;;;2.47;;
57573;SDS011;63722;48.858;21.906;2023-01-09T04:20:47;2.20;;;2.10;;
57573;SDS011;63722;48.858;21.906;2023-01-09T04:23:13;2.40;;;2.30;;
57573;SDS011;63722;48.858;21.906;2023-01-09T04:25:39;2.50;;;2.40;;
57573;SDS011;63722;48.858;21.906;2023-01-09T04:28:04;2.60;;;2.50;;
57573;SDS011;63722;48.858;21.906;2023-01-09T04:30:30;2.70;;;2.60;;
57573;SDS011;63722;48.858;21.906;2023-01-09T04:32:56;2.80;;;2.65;;
57573;SDS011;63722;48.858;21.906;2023-01-09T04:35:21;2.67;;;2.47;;
57573;SDS011;63722;48.858;21.906;2023-01-09T04:37:47;2.67;;;2.58;;
57573;SDS011;63722;48.858;21.906;2023-01-09T04:40:12;2.70;;;2.50;;
57573;SDS011;63722;48.858;21.906;2023-01-09T04:42:39;2.83;;;2.72;;
57573;SDS011;63722;48.858;21.906;2023-01-09T04:45:05;2.58;;;2.47;;
57573;SDS011;63722;48.858;21.906;2023-01-09T04:47:32;2.50;;;2.40;;
57573;SDS011;63722;48.858;21.906;2023-01-09T04:49:58;2.58;;;2.47;;
57573;SDS011;63722;48.858;21.906;2023-01-09T04:52:24;2.42;;;2.33;;
57573;SDS011;63722;48.858;21.906;2023-01-09T04:54:50;4.30;;;2.38;;
57573;SDS011;63722;48.858;21.906;2023-01-09T04:57:16;2.67;;;2.58;;
57573;SDS011;63722;48.858;21.906;2023-01-09T04:59:41;2.50;;;2.40;;
57573;SDS011;63722;48.858;21.906;2023-01-09T05:02:06;2.70;;;2.60;;
57573;SDS011;63722;48.858;21.906;2023-01-09T05:04:32;2.53;;;2.42;;
57573;SDS011;63722;48.858;21.906;2023-01-09T05:06:57;2.65;;;2.17;;
57573;SDS011;63722;48.858;21.906;2023-01-09T05:09:23;2.42;;;2.33;;
57573;SDS011;63722;48.858;21.906;2023-01-09T05:11:48;2.75;;;2.55;;
57573;SDS011;63722;48.858;21.906;2023-01-09T05:14:14;2.38;;;2.20;;
57573;SDS011;63722;48.858;21.906;2023-01-09T05:16:40;2.60;;;2.50;;
57573;SDS011;63722;48.858;21.906;2023-01-09T05:19:05;2.70;;;2.60;;
57573;SDS011;63722;48.858;21.906;2023-01-09T05:21:30;2.55;;;2.45;;
57573;SDS011;63722;48.858;21.906;2023-01-09T05:23:56;2.83;;;2.70;;
57573;SDS011;63722;48.858;21.906;2023-01-09T05:26:21;2.65;;;2.45;;
57573;SDS011;63722;48.858;21.906;2023-01-09T05:28:51;3.00;;;2.80;;
57573;SDS011;63722;48.858;21.906;2023-01-09T05:31:18;2.40;;;2.30;;
57573;SDS011;63722;48.858;21.906;2023-01-09T05:33:44;2.85;;;2.72;;
57573;SDS011;63722;48.858;21.906;2023-01-09T05:36:10;2.53;;;2.42;;
57573;SDS011;63722;48.858;21.906;2023-01-09T05:38:35;2.80;;;2.70;;
57573;SDS011;63722;48.858;21.906;2023-01-09T05:41:01;2.28;;;2.17;;
57573;SDS011;63722;48.858;21.906;2023-01-09T05:43:26;2.38;;;2.28;;
57573;SDS011;63722;48.858;21.906;2023-01-09T05:45:52;2.33;;;2.22;;
57573;SDS011;63722;48.858;21.906;2023-01-09T05:48:17;3.15;;;2.50;;
57573;SDS011;63722;48.858;21.906;2023-01-09T05:50:42;2.60;;;2.50;;
57573;SDS011;63722;48.858;21.906;2023-01-09T05:53:08;2.55;;;2.45;;
57573;SDS011;63722;48.858;21.906;2023-01-09T05:55:33;2.67;;;2.58;;
57573;SDS011;63722;48.858;21.906;2023-01-09T05:57:59;2.30;;;2.20;;
57573;SDS011;63722;48.858;21.906;2023-01-09T06:00:24;2.47;;;2.38;;
57573;SDS011;63722;48.858;21.906;2023-01-09T06:02:50;2.58;;;2.47;;
57573;SDS011;63722;48.858;21.906;2023-01-09T06:05:15;2.63;;;2.53;;
57573;SDS011;63722;48.858;21.906;2023-01-09T06:07:41;2.58;;;2.47;;
57573;SDS011;63722;48.858;21.906;2023-01-09T06:10:07;2.55;;;2.45;;
57573;SDS011;63722;48.858;21.906;2023-01-09T06:12:37;2.70;;;2.55;;
57573;SDS011;63722;48.858;21.906;2023-01-09T06:15:03;2.53;;;2.42;;
57573;SDS011;63722;48.858;21.906;2023-01-09T06:17:29;4.50;;;4.10;;
57573;SDS011;63722;48.858;21.906;2023-01-09T06:19:55;3.50;;;3.30;;
57573;SDS011;63722;48.858;21.906;2023-01-09T06:22:20;5.10;;;3.30;;
57573;SDS011;63722;48.858;21.906;2023-01-09T06:24:45;6.28;;;3.40;;
57573;SDS011;63722;48.858;21.906;2023-01-09T06:27:11;3.75;;;3.30;;
57573;SDS011;63722;48.858;21.906;2023-01-09T06:29:37;5.70;;;3.13;;
57573;SDS011;63722;48.858;21.906;2023-01-09T06:32:02;3.13;;;2.92;;
57573;SDS011;63722;48.858;21.906;2023-01-09T06:34:28;2.80;;;2.60;;
57573;SDS011;63722;48.858;21.906;2023-01-09T06:37:06;3.97;;;2.85;;
57573;SDS011;63722;48.858;21.906;2023-01-09T06:39:32;3.20;;;3.00;;
57573;SDS011;63722;48.858;21.906;2023-01-09T06:41:57;2.70;;;2.55;;
57573;SDS011;63722;48.858;21.906;2023-01-09T06:44:23;5.88;;;2.83;;
57573;SDS011;63722;48.858;21.906;2023-01-09T06:46:48;6.28;;;2.80;;
57573;SDS011;63722;48.858;21.906;2023-01-09T06:49:13;15.52;;;3.53;;
57573;SDS011;63722;48.858;21.906;2023-01-09T06:51:39;14.23;;;3.47;;
57573;SDS011;63722;48.858;21.906;2023-01-09T06:54:04;3.67;;;2.88;;
57573;SDS011;63722;48.858;21.906;2023-01-09T06:56:30;11.18;;;3.17;;
57573;SDS011;63722;48.858;21.906;2023-01-09T06:58:55;9.27;;;3.17;;
57573;SDS011;63722;48.858;21.906;2023-01-09T07:01:20;8.57;;;2.95;;
57573;SDS011;63722;48.858;21.906;2023-01-09T07:03:46;7.95;;;3.38;;
57573;SDS011;63722;48.858;21.906;2023-01-09T07:06:12;17.67;;;3.03;;
